GAF1511 WADD-WATO
Flight info
| Callsign | GAF1511 |
|---|---|
| Flight time | N/A |
| Altitude | 37000 |
| Route | DCT PEBGU W42 NMA W69 HUMAI HUMAI2A |
| Aircraft | A21N/M-SDE3FGHIRWY/LB1 |
Departure
| Time | N/A |
|---|---|
| Airport | Denpasar I Gusti Ngurah Rai International Airport (WADD) |
Arrival
| Time | 2026-05-08 08:53 |
|---|---|
| Airport | Komodo Airport (WATO) |
| Time | Latitude | Longitude | Altitude | Speed | Heading |
|---|---|---|---|---|---|
| 2026-05-08 08:15 | -8.51534 | 118.27415 | 33383 ft | 438 kts | 92° |
| 2026-05-08 08:16 | -8.51673 | 118.30444 | 32637 ft | 440 kts | 92° |
| 2026-05-08 08:16 | -8.51814 | 118.33503 | 31928 ft | 440 kts | 92° |
| 2026-05-08 08:16 | -8.51949 | 118.36454 | 31457 ft | 435 kts | 92° |
| 2026-05-08 08:16 | -8.52086 | 118.39445 | 30993 ft | 429 kts | 92° |
| 2026-05-08 08:17 | -8.52221 | 118.42415 | 30552 ft | 424 kts | 92° |
| 2026-05-08 08:17 | -8.52358 | 118.45421 | 30109 ft | 418 kts | 92° |
| 2026-05-08 08:17 | -8.52489 | 118.48302 | 29685 ft | 413 kts | 92° |
| 2026-05-08 08:17 | -8.52622 | 118.51230 | 29253 ft | 408 kts | 92° |
| 2026-05-08 08:18 | -8.52749 | 118.54048 | 28835 ft | 404 kts | 92° |
| 2026-05-08 08:18 | -8.52878 | 118.56921 | 28407 ft | 400 kts | 92° |
| 2026-05-08 08:18 | -8.53003 | 118.59676 | 27996 ft | 395 kts | 92° |
| 2026-05-08 08:18 | -8.53130 | 118.62503 | 27570 ft | 392 kts | 92° |
| 2026-05-08 08:19 | -8.53250 | 118.65215 | 27160 ft | 388 kts | 91° |
| 2026-05-08 08:19 | -8.53233 | 118.67958 | 26740 ft | 385 kts | 86° |
| 2026-05-08 08:19 | -8.52979 | 118.70647 | 26303 ft | 382 kts | 82° |
| 2026-05-08 08:19 | -8.52487 | 118.73325 | 25746 ft | 383 kts | 77° |
| 2026-05-08 08:20 | -8.51894 | 118.75925 | 25194 ft | 383 kts | 76° |
| 2026-05-08 08:20 | -8.51273 | 118.78569 | 24680 ft | 382 kts | 76° |
| 2026-05-08 08:20 | -8.50668 | 118.81142 | 24202 ft | 380 kts | 76° |
| 2026-05-08 08:20 | -8.50054 | 118.83767 | 23720 ft | 378 kts | 76° |
| 2026-05-08 08:21 | -8.49453 | 118.86342 | 23252 ft | 376 kts | 77° |
| 2026-05-08 08:21 | -8.48853 | 118.88921 | 22781 ft | 374 kts | 77° |
| 2026-05-08 08:21 | -8.48262 | 118.91463 | 22316 ft | 372 kts | 77° |
| 2026-05-08 08:21 | -8.47667 | 118.94022 | 21844 ft | 369 kts | 77° |
| 2026-05-08 08:22 | -8.47086 | 118.96522 | 21383 ft | 367 kts | 77° |
| 2026-05-08 08:22 | -8.46497 | 118.99059 | 20911 ft | 365 kts | 77° |
| 2026-05-08 08:22 | -8.45919 | 119.01543 | 20448 ft | 363 kts | 77° |
| 2026-05-08 08:22 | -8.45337 | 119.04050 | 19977 ft | 360 kts | 77° |
| 2026-05-08 08:23 | -8.44771 | 119.06483 | 19519 ft | 358 kts | 77° |
| 2026-05-08 08:23 | -8.44192 | 119.08973 | 19048 ft | 355 kts | 77° |
| 2026-05-08 08:23 | -8.43632 | 119.11385 | 18598 ft | 353 kts | 77° |
| 2026-05-08 08:23 | -8.43071 | 119.13795 | 18148 ft | 350 kts | 76° |
| 2026-05-08 08:24 | -8.42519 | 119.16166 | 17707 ft | 347 kts | 76° |
| 2026-05-08 08:24 | -8.41956 | 119.18584 | 17254 ft | 345 kts | 76° |
| 2026-05-08 08:24 | -8.41415 | 119.20905 | 16819 ft | 342 kts | 76° |
| 2026-05-08 08:24 | -8.40864 | 119.23273 | 16374 ft | 340 kts | 76° |
| 2026-05-08 08:25 | -8.40325 | 119.25585 | 15937 ft | 337 kts | 76° |
| 2026-05-08 08:25 | -8.39788 | 119.27887 | 15502 ft | 335 kts | 76° |
| 2026-05-08 08:25 | -8.39259 | 119.30156 | 15071 ft | 332 kts | 76° |
| 2026-05-08 08:25 | -8.38725 | 119.32447 | 14634 ft | 330 kts | 76° |
| 2026-05-08 08:26 | -8.38203 | 119.34691 | 14204 ft | 328 kts | 76° |
| 2026-05-08 08:26 | -8.37671 | 119.36962 | 13766 ft | 326 kts | 76° |
| 2026-05-08 08:26 | -8.37070 | 119.39124 | 13338 ft | 324 kts | 72° |
| 2026-05-08 08:26 | -8.36292 | 119.41308 | 12847 ft | 323 kts | 68° |
| 2026-05-08 08:27 | -8.35442 | 119.43377 | 12355 ft | 323 kts | 67° |
| 2026-05-08 08:27 | -8.34549 | 119.45512 | 11887 ft | 321 kts | 67° |
| 2026-05-08 08:27 | -8.33688 | 119.47566 | 11439 ft | 319 kts | 67° |
| 2026-05-08 08:27 | -8.32806 | 119.49673 | 10978 ft | 318 kts | 67° |
| 2026-05-08 08:28 | -8.31955 | 119.51707 | 10531 ft | 316 kts | 67° |
| 2026-05-08 08:28 | -8.31095 | 119.53764 | 10211 ft | 308 kts | 67° |
| 2026-05-08 08:28 | -8.30280 | 119.55716 | 10076 ft | 294 kts | 66° |
| 2026-05-08 08:28 | -8.29485 | 119.57617 | 9917 ft | 283 kts | 66° |
| 2026-05-08 08:29 | -8.28714 | 119.59462 | 9500 ft | 282 kts | 66° |
| 2026-05-08 08:29 | -8.27939 | 119.61312 | 9098 ft | 281 kts | 66° |
| 2026-05-08 08:29 | -8.27175 | 119.63141 | 8706 ft | 280 kts | 66° |
| 2026-05-08 08:29 | -8.26403 | 119.64981 | 8318 ft | 278 kts | 66° |
| 2026-05-08 08:30 | -8.25655 | 119.66772 | 7937 ft | 276 kts | 66° |
| 2026-05-08 08:30 | -8.24895 | 119.68587 | 7552 ft | 274 kts | 66° |
| 2026-05-08 08:30 | -8.23420 | 119.72111 | 6831 ft | 268 kts | 66° |
| 2026-05-08 08:31 | -8.22695 | 119.73842 | 6470 ft | 265 kts | 66° |
| 2026-05-08 08:31 | -8.21972 | 119.75574 | 6154 ft | 259 kts | 66° |
| 2026-05-08 08:31 | -8.21282 | 119.77225 | 6096 ft | 245 kts | 66° |
| 2026-05-08 08:31 | -8.20628 | 119.78785 | 6038 ft | 231 kts | 66° |
| 2026-05-08 08:32 | -8.20175 | 119.80303 | 5994 ft | 219 kts | 84° |
| 2026-05-08 08:32 | -8.20306 | 119.81860 | 5745 ft | 225 kts | 102° |
| 2026-05-08 08:32 | -8.20728 | 119.83416 | 5372 ft | 228 kts | 105° |
| 2026-05-08 08:32 | -8.21188 | 119.84955 | 5028 ft | 228 kts | 105° |
| 2026-05-08 08:33 | -8.21672 | 119.86495 | 4731 ft | 225 kts | 111° |
| 2026-05-08 08:33 | -8.22675 | 119.87673 | 4339 ft | 222 kts | 148° |
| 2026-05-08 08:33 | -8.24149 | 119.87971 | 4145 ft | 209 kts | 185° |
| 2026-05-08 08:33 | -8.25517 | 119.87649 | 4079 ft | 191 kts | 196° |
| 2026-05-08 08:34 | -8.26737 | 119.87273 | 3963 ft | 176 kts | 198° |
| 2026-05-08 08:34 | -8.27888 | 119.86918 | 3845 ft | 161 kts | 196° |
| 2026-05-08 08:34 | -8.28962 | 119.86673 | 3734 ft | 154 kts | 188° |
| 2026-05-08 08:34 | -8.30029 | 119.86590 | 3600 ft | 152 kts | 179° |
| 2026-05-08 08:35 | -8.31072 | 119.86629 | 3393 ft | 144 kts | 175° |
| 2026-05-08 08:35 | -8.32070 | 119.86725 | 3178 ft | 141 kts | 173° |
| 2026-05-08 08:35 | -8.33062 | 119.86845 | 2990 ft | 142 kts | 172° |
| 2026-05-08 08:35 | -8.34050 | 119.86974 | 2802 ft | 141 kts | 172° |
| 2026-05-08 08:36 | -8.35039 | 119.87106 | 2613 ft | 141 kts | 171° |
| 2026-05-08 08:36 | -8.35983 | 119.87234 | 2428 ft | 140 kts | 171° |
| 2026-05-08 08:36 | -8.36958 | 119.87367 | 2244 ft | 139 kts | 171° |
| 2026-05-08 08:36 | -8.37902 | 119.87493 | 2064 ft | 139 kts | 171° |
| 2026-05-08 08:37 | -8.38866 | 119.87624 | 1876 ft | 138 kts | 171° |
| 2026-05-08 08:37 | -8.39828 | 119.87753 | 1692 ft | 138 kts | 171° |
| 2026-05-08 08:37 | -8.40788 | 119.87882 | 1509 ft | 138 kts | 172° |
| 2026-05-08 08:37 | -8.41760 | 119.88011 | 1322 ft | 138 kts | 172° |
| 2026-05-08 08:38 | -8.42720 | 119.88140 | 1137 ft | 138 kts | 171° |
| 2026-05-08 08:38 | -8.43661 | 119.88267 | 953 ft | 137 kts | 172° |
| 2026-05-08 08:38 | -8.44624 | 119.88396 | 771 ft | 137 kts | 172° |
| 2026-05-08 08:38 | -8.45560 | 119.88519 | 689 ft | 135 kts | 172° |
| 2026-05-08 08:39 | -8.46507 | 119.88659 | 537 ft | 139 kts | 173° |
| 2026-05-08 08:39 | -8.47471 | 119.88773 | 248 ft | 131 kts | 170° |
| 2026-05-08 08:39 | -8.48297 | 119.88893 | 259 ft | 118 kts | 167° |
| 2026-05-08 08:39 | -8.49179 | 119.89035 | 860 ft | 136 kts | 170° |
| 2026-05-08 08:40 | -8.50104 | 119.89185 | 1689 ft | 142 kts | 170° |
| 2026-05-08 08:40 | -8.51130 | 119.89355 | 2482 ft | 158 kts | 169° |
| 2026-05-08 08:40 | -8.52276 | 119.89495 | 3170 ft | 176 kts | 184° |
| 2026-05-08 08:40 | -8.53459 | 119.89062 | 3889 ft | 194 kts | 218° |
| 2026-05-08 08:41 | -8.54478 | 119.88079 | 4575 ft | 216 kts | 228° |
| 2026-05-08 08:41 | -8.55488 | 119.86877 | 4936 ft | 226 kts | 231° |
| 2026-05-08 08:41 | -8.56302 | 119.85519 | 4988 ft | 226 kts | 256° |
| 2026-05-08 08:41 | -8.56309 | 119.83929 | 4997 ft | 224 kts | 288° |
| 2026-05-08 08:42 | -8.55697 | 119.82461 | 5006 ft | 223 kts | 299° |
| 2026-05-08 08:42 | -8.54789 | 119.81209 | 4996 ft | 220 kts | 325° |
| 2026-05-08 08:42 | -8.53418 | 119.80570 | 5008 ft | 217 kts | 346° |
| 2026-05-08 08:42 | -8.51939 | 119.80229 | 5007 ft | 215 kts | 350° |
| 2026-05-08 08:43 | -8.50463 | 119.79954 | 5005 ft | 215 kts | 351° |
| 2026-05-08 08:43 | -8.48971 | 119.79692 | 5003 ft | 214 kts | 351° |
| 2026-05-08 08:43 | -8.47481 | 119.79442 | 5002 ft | 214 kts | 351° |
| 2026-05-08 08:43 | -8.45999 | 119.79193 | 5000 ft | 215 kts | 351° |
| 2026-05-08 08:44 | -8.44509 | 119.78938 | 4998 ft | 215 kts | 351° |
| 2026-05-08 08:44 | -8.43005 | 119.78675 | 4997 ft | 215 kts | 351° |
| 2026-05-08 08:44 | -8.41515 | 119.78667 | 4993 ft | 214 kts | 12° |
| 2026-05-08 08:44 | -8.40063 | 119.79105 | 4948 ft | 214 kts | 19° |
| 2026-05-08 08:45 | -8.38640 | 119.79636 | 4715 ft | 214 kts | 21° |
| 2026-05-08 08:45 | -8.37252 | 119.80173 | 4464 ft | 212 kts | 21° |
| 2026-05-08 08:45 | -8.35882 | 119.80712 | 4210 ft | 208 kts | 21° |
| 2026-05-08 08:45 | -8.34537 | 119.81242 | 4051 ft | 197 kts | 21° |
| 2026-05-08 08:46 | -8.33288 | 119.81750 | 3808 ft | 189 kts | 26° |
| 2026-05-08 08:46 | -8.32285 | 119.82579 | 3546 ft | 182 kts | 46° |
| 2026-05-08 08:46 | -8.31477 | 119.83559 | 3310 ft | 173 kts | 50° |
| 2026-05-08 08:48 | -8.28093 | 119.88860 | 2007 ft | 145 kts | 116° |
| 2026-05-08 08:48 | -8.28911 | 119.89449 | 2016 ft | 149 kts | 170° |
| 2026-05-08 08:48 | -8.29932 | 119.89355 | 2018 ft | 149 kts | 193° |
| 2026-05-08 08:48 | -8.30948 | 119.89111 | 2006 ft | 149 kts | 193° |
| 2026-05-08 08:49 | -8.31981 | 119.88856 | 2000 ft | 149 kts | 193° |
| 2026-05-08 08:49 | -8.33001 | 119.88615 | 1998 ft | 149 kts | 192° |
| 2026-05-08 08:49 | -8.34027 | 119.88380 | 1997 ft | 149 kts | 193° |
| 2026-05-08 08:49 | -8.35042 | 119.88151 | 1997 ft | 149 kts | 192° |
| 2026-05-08 08:50 | -8.36072 | 119.87922 | 1997 ft | 149 kts | 193° |
| 2026-05-08 08:50 | -8.37097 | 119.87714 | 1998 ft | 146 kts | 187° |
| 2026-05-08 08:50 | -8.38079 | 119.87660 | 1981 ft | 140 kts | 178° |
| 2026-05-08 08:50 | -8.39062 | 119.87701 | 1852 ft | 139 kts | 176° |
| 2026-05-08 08:51 | -8.40038 | 119.87785 | 1649 ft | 138 kts | 174° |
| 2026-05-08 08:51 | -8.41004 | 119.87907 | 1466 ft | 138 kts | 172° |
| 2026-05-08 08:51 | -8.41961 | 119.88040 | 1282 ft | 138 kts | 172° |
| 2026-05-08 08:51 | -8.42908 | 119.88170 | 1100 ft | 137 kts | 172° |
| 2026-05-08 08:52 | -8.43870 | 119.88297 | 917 ft | 136 kts | 171° |
| 2026-05-08 08:52 | -8.44809 | 119.88423 | 736 ft | 136 kts | 171° |
| 2026-05-08 08:52 | -8.45762 | 119.88552 | 562 ft | 136 kts | 172° |
| 2026-05-08 08:52 | -8.46709 | 119.88669 | 380 ft | 136 kts | 171° |
| 2026-05-08 08:53 | -8.47650 | 119.88796 | 243 ft | 129 kts | 171° |
| 2026-05-08 08:53 | -8.48430 | 119.88902 | 237 ft | 89 kts | 171° |
| 2026-05-08 08:53 | -8.48890 | 119.88963 | 237 ft | 49 kts | 172° |
| 2026-05-08 08:53 | -8.49115 | 119.88992 | 237 ft | 28 kts | 172° |
| 2026-05-08 08:54 | -8.49239 | 119.88962 | 237 ft | 13 kts | 262° |
| 2026-05-08 08:54 | -8.49201 | 119.88894 | 237 ft | 13 kts | 350° |
| 2026-05-08 08:54 | -8.49074 | 119.88876 | 237 ft | 42 kts | 354° |
| 2026-05-08 08:54 | -8.48865 | 119.88844 | 237 ft | 3 kts | 302° |
| 2026-05-08 08:55 | -8.48887 | 119.88688 | 237 ft | 68 kts | 263° |
| 2026-05-08 08:55 | -8.48862 | 119.87884 | 342 ft | 152 kts | 283° |
| 2026-05-08 08:55 | -8.48628 | 119.86720 | 1234 ft | 169 kts | 296° |
| 2026-05-08 08:55 | -8.47955 | 119.85868 | 124 ft | 269 kts | 259° |